sensor_id;sensor_type;location;lat;lon;timestamp;temperature;humidity
67131;HTU21D;54051;53.464;49.532;2023-06-10T00:01:59;18.00;65.69
67131;HTU21D;54051;53.464;49.532;2023-06-10T00:04:26;18.03;65.43
67131;HTU21D;54051;53.464;49.532;2023-06-10T00:06:55;18.08;65.13
67131;HTU21D;54051;53.464;49.532;2023-06-10T00:09:21;18.07;65.27
67131;HTU21D;54051;53.464;49.532;2023-06-10T00:11:48;18.04;65.43
67131;HTU21D;54051;53.464;49.532;2023-06-10T00:14:14;17.99;66.27
67131;HTU21D;54051;53.464;49.532;2023-06-10T00:16:41;17.99;65.82
67131;HTU21D;54051;53.464;49.532;2023-06-10T00:19:11;18.00;66.41
67131;HTU21D;54051;53.464;49.532;2023-06-10T00:21:40;18.04;65.54
67131;HTU21D;54051;53.464;49.532;2023-06-10T00:24:07;18.07;65.54
67131;HTU21D;54051;53.464;49.532;2023-06-10T00:26:38;18.12;65.11
67131;HTU21D;54051;53.464;49.532;2023-06-10T00:29:05;18.12;64.42
67131;HTU21D;54051;53.464;49.532;2023-06-10T00:31:31;18.15;65.11
67131;HTU21D;54051;53.464;49.532;2023-06-10T00:33:58;18.19;63.92
67131;HTU21D;54051;53.464;49.532;2023-06-10T00:36:24;18.26;62.80
67131;HTU21D;54051;53.464;49.532;2023-06-10T00:38:51;18.35;63.70
67131;HTU21D;54051;53.464;49.532;2023-06-10T00:41:17;18.41;62.78
67131;HTU21D;54051;53.464;49.532;2023-06-10T00:43:43;18.50;62.35
67131;HTU21D;54051;53.464;49.532;2023-06-10T00:46:11;18.51;62.38
67131;HTU21D;54051;53.464;49.532;2023-06-10T00:48:39;18.58;62.60
67131;HTU21D;54051;53.464;49.532;2023-06-10T00:51:05;18.65;60.77
67131;HTU21D;54051;53.464;49.532;2023-06-10T00:53:32;18.68;61.41
67131;HTU21D;54051;53.464;49.532;2023-06-10T00:55:58;18.66;61.60
67131;HTU21D;54051;53.464;49.532;2023-06-10T00:58:25;18.65;62.01
67131;HTU21D;54051;53.464;49.532;2023-06-10T01:00:52;18.66;62.70
67131;HTU21D;54051;53.464;49.532;2023-06-10T01:03:19;18.65;62.02
67131;HTU21D;54051;53.464;49.532;2023-06-10T01:05:50;18.70;61.19
67131;HTU21D;54051;53.464;49.532;2023-06-10T01:11:21;18.82;60.66
67131;HTU21D;54051;53.464;49.532;2023-06-10T01:13:50;18.83;61.02
67131;HTU21D;54051;53.464;49.532;2023-06-10T01:16:19;18.86;61.89
67131;HTU21D;54051;53.464;49.532;2023-06-10T01:18:45;18.88;60.89
67131;HTU21D;54051;53.464;49.532;2023-06-10T01:21:22;18.87;60.87
67131;HTU21D;54051;53.464;49.532;2023-06-10T01:23:54;18.91;60.73
67131;HTU21D;54051;53.464;49.532;2023-06-10T01:26:24;18.91;61.08
67131;HTU21D;54051;53.464;49.532;2023-06-10T01:28:57;18.92;60.86
67131;HTU21D;54051;53.464;49.532;2023-06-10T01:31:42;19.00;61.35
67131;HTU21D;54051;53.464;49.532;2023-06-10T01:34:14;19.07;62.49
67131;HTU21D;54051;53.464;49.532;2023-06-10T01:36:46;19.08;62.24
67131;HTU21D;54051;53.464;49.532;2023-06-10T01:39:19;19.11;62.05
67131;HTU21D;54051;53.464;49.532;2023-06-10T01:41:48;19.31;60.40
67131;HTU21D;54051;53.464;49.532;2023-06-10T01:44:20;20.05;58.13
67131;HTU21D;54051;53.464;49.532;2023-06-10T01:46:47;20.65;56.12
67131;HTU21D;54051;53.464;49.532;2023-06-10T01:49:13;20.96;55.21
67131;HTU21D;54051;53.464;49.532;2023-06-10T01:51:39;22.09;51.34
67131;HTU21D;54051;53.464;49.532;2023-06-10T01:54:06;23.14;47.53
67131;HTU21D;54051;53.464;49.532;2023-06-10T01:56:33;23.94;46.76
67131;HTU21D;54051;53.464;49.532;2023-06-10T01:58:59;24.55;44.33
67131;HTU21D;54051;53.464;49.532;2023-06-10T02:01:25;25.39;42.33
67131;HTU21D;54051;53.464;49.532;2023-06-10T02:03:52;26.30;40.12
67131;HTU21D;54051;53.464;49.532;2023-06-10T02:06:18;27.28;37.83
67131;HTU21D;54051;53.464;49.532;2023-06-10T02:08:45;28.13;36.15
67131;HTU21D;54051;53.464;49.532;2023-06-10T02:11:11;28.80;35.00
67131;HTU21D;54051;53.464;49.532;2023-06-10T02:13:38;29.22;33.83
67131;HTU21D;54051;53.464;49.532;2023-06-10T02:16:04;29.67;33.41
67131;HTU21D;54051;53.464;49.532;2023-06-10T02:18:31;30.44;31.39
67131;HTU21D;54051;53.464;49.532;2023-06-10T02:20:58;31.02;31.16
67131;HTU21D;54051;53.464;49.532;2023-06-10T02:23:24;31.48;29.61
67131;HTU21D;54051;53.464;49.532;2023-06-10T02:25:50;31.92;29.55
67131;HTU21D;54051;53.464;49.532;2023-06-10T02:28:17;31.88;28.61
67131;HTU21D;54051;53.464;49.532;2023-06-10T02:30:43;32.04;28.32
67131;HTU21D;54051;53.464;49.532;2023-06-10T02:33:10;32.55;27.62
67131;HTU21D;54051;53.464;49.532;2023-06-10T02:35:38;32.68;27.65
67131;HTU21D;54051;53.464;49.532;2023-06-10T02:38:04;33.04;26.56
67131;HTU21D;54051;53.464;49.532;2023-06-10T02:40:30;32.59;27.13
67131;HTU21D;54051;53.464;49.532;2023-06-10T02:42:57;33.04;26.80
67131;HTU21D;54051;53.464;49.532;2023-06-10T02:45:24;33.57;26.25
67131;HTU21D;54051;53.464;49.532;2023-06-10T02:47:51;33.97;25.72
67131;HTU21D;54051;53.464;49.532;2023-06-10T02:50:17;33.20;27.06
67131;HTU21D;54051;53.464;49.532;2023-06-10T02:52:43;31.40;30.48
67131;HTU21D;54051;53.464;49.532;2023-06-10T02:55:10;30.71;32.10
67131;HTU21D;54051;53.464;49.532;2023-06-10T02:57:36;30.76;31.78
67131;HTU21D;54051;53.464;49.532;2023-06-10T03:00:02;31.27;31.01
67131;HTU21D;54051;53.464;49.532;2023-06-10T03:02:35;32.43;28.59
67131;HTU21D;54051;53.464;49.532;2023-06-10T03:05:05;32.79;27.30
67131;HTU21D;54051;53.464;49.532;2023-06-10T03:07:31;32.86;27.50
67131;HTU21D;54051;53.464;49.532;2023-06-10T03:09:58;33.02;27.55
67131;HTU21D;54051;53.464;49.532;2023-06-10T03:12:24;33.73;26.81
67131;HTU21D;54051;53.464;49.532;2023-06-10T03:14:50;34.17;26.41
67131;HTU21D;54051;53.464;49.532;2023-06-10T03:17:17;34.00;26.47
67131;HTU21D;54051;53.464;49.532;2023-06-10T03:19:44;34.06;26.31
67131;HTU21D;54051;53.464;49.532;2023-06-10T03:22:12;34.08;26.29
67131;HTU21D;54051;53.464;49.532;2023-06-10T03:24:39;34.24;25.59
67131;HTU21D;54051;53.464;49.532;2023-06-10T03:27:10;33.83;26.12
67131;HTU21D;54051;53.464;49.532;2023-06-10T03:29:37;34.12;26.17
67131;HTU21D;54051;53.464;49.532;2023-06-10T03:32:04;34.20;26.26
67131;HTU21D;54051;53.464;49.532;2023-06-10T03:34:32;35.15;24.51
67131;HTU21D;54051;53.464;49.532;2023-06-10T03:36:58;35.04;24.62
67131;HTU21D;54051;53.464;49.532;2023-06-10T03:39:25;35.43;24.06
67131;HTU21D;54051;53.464;49.532;2023-06-10T03:41:51;36.12;23.23
67131;HTU21D;54051;53.464;49.532;2023-06-10T03:44:18;36.34;23.90
67131;HTU21D;54051;53.464;49.532;2023-06-10T03:46:44;37.28;21.92
67131;HTU21D;54051;53.464;49.532;2023-06-10T03:49:11;38.11;20.85
67131;HTU21D;54051;53.464;49.532;2023-06-10T03:51:38;37.91;21.43
67131;HTU21D;54051;53.464;49.532;2023-06-10T03:54:04;38.61;20.07
67131;HTU21D;54051;53.464;49.532;2023-06-10T03:56:31;38.63;19.98
67131;HTU21D;54051;53.464;49.532;2023-06-10T03:58:57;38.50;20.37
67131;HTU21D;54051;53.464;49.532;2023-06-10T04:01:23;38.81;19.96
67131;HTU21D;54051;53.464;49.532;2023-06-10T04:03:50;39.06;19.98
67131;HTU21D;54051;53.464;49.532;2023-06-10T04:06:20;39.47;18.88
67131;HTU21D;54051;53.464;49.532;2023-06-10T04:08:48;40.45;17.59
67131;HTU21D;54051;53.464;49.532;2023-06-10T04:11:14;40.39;17.74
67131;HTU21D;54051;53.464;49.532;2023-06-10T04:13:41;40.08;18.46
67131;HTU21D;54051;53.464;49.532;2023-06-10T04:16:07;39.85;19.09
67131;HTU21D;54051;53.464;49.532;2023-06-10T04:18:33;40.63;18.79
67131;HTU21D;54051;53.464;49.532;2023-06-10T04:20:59;41.80;16.80
67131;HTU21D;54051;53.464;49.532;2023-06-10T04:23:26;40.93;17.53
67131;HTU21D;54051;53.464;49.532;2023-06-10T04:25:52;40.41;17.43
67131;HTU21D;54051;53.464;49.532;2023-06-10T04:28:18;40.45;17.60
67131;HTU21D;54051;53.464;49.532;2023-06-10T04:30:44;41.48;15.90
67131;HTU21D;54051;53.464;49.532;2023-06-10T04:33:14;41.44;16.25
67131;HTU21D;54051;53.464;49.532;2023-06-10T04:35:40;41.32;16.39
67131;HTU21D;54051;53.464;49.532;2023-06-10T04:38:07;41.58;16.39
67131;HTU21D;54051;53.464;49.532;2023-06-10T04:40:33;41.80;15.77
67131;HTU21D;54051;53.464;49.532;2023-06-10T04:43:02;41.70;15.79
67131;HTU21D;54051;53.464;49.532;2023-06-10T04:45:28;41.58;16.24
67131;HTU21D;54051;53.464;49.532;2023-06-10T04:47:58;41.79;15.82
67131;HTU21D;54051;53.464;49.532;2023-06-10T04:50:24;41.86;15.56
67131;HTU21D;54051;53.464;49.532;2023-06-10T04:52:51;42.55;14.84
67131;HTU21D;54051;53.464;49.532;2023-06-10T04:55:21;42.55;13.84
67131;HTU21D;54051;53.464;49.532;2023-06-10T04:57:47;42.29;14.50
67131;HTU21D;54051;53.464;49.532;2023-06-10T05:00:17;42.23;15.13
67131;HTU21D;54051;53.464;49.532;2023-06-10T05:02:43;42.75;14.09
67131;HTU21D;54051;53.464;49.532;2023-06-10T05:05:16;42.50;14.39
67131;HTU21D;54051;53.464;49.532;2023-06-10T05:07:43;42.21;14.42
67131;HTU21D;54051;53.464;49.532;2023-06-10T05:10:12;42.35;14.65
67131;HTU21D;54051;53.464;49.532;2023-06-10T05:12:39;42.26;14.36
67131;HTU21D;54051;53.464;49.532;2023-06-10T05:15:09;42.34;14.38
67131;HTU21D;54051;53.464;49.532;2023-06-10T05:17:38;41.95;14.54
67131;HTU21D;54051;53.464;49.532;2023-06-10T05:20:05;41.87;15.29
67131;HTU21D;54051;53.464;49.532;2023-06-10T05:22:32;41.86;14.56
67131;HTU21D;54051;53.464;49.532;2023-06-10T05:24:58;41.49;15.00
67131;HTU21D;54051;53.464;49.532;2023-06-10T05:27:24;41.12;15.77
67131;HTU21D;54051;53.464;49.532;2023-06-10T05:29:51;41.54;15.95
67131;HTU21D;54051;53.464;49.532;2023-06-10T05:32:18;42.95;14.19
67131;HTU21D;54051;53.464;49.532;2023-06-10T05:34:44;43.28;13.13
67131;HTU21D;54051;53.464;49.532;2023-06-10T05:37:11;43.31;13.32
67131;HTU21D;54051;53.464;49.532;2023-06-10T05:39:43;43.16;13.71
67131;HTU21D;54051;53.464;49.532;2023-06-10T05:42:15;42.95;13.81
67131;HTU21D;54051;53.464;49.532;2023-06-10T05:44:46;42.72;13.97
67131;HTU21D;54051;53.464;49.532;2023-06-10T05:47:13;43.16;13.04
67131;HTU21D;54051;53.464;49.532;2023-06-10T05:49:39;42.99;13.39
67131;HTU21D;54051;53.464;49.532;2023-06-10T05:52:06;42.17;14.55
67131;HTU21D;54051;53.464;49.532;2023-06-10T05:54:32;42.29;14.71
67131;HTU21D;54051;53.464;49.532;2023-06-10T05:56:59;42.46;14.95
67131;HTU21D;54051;53.464;49.532;2023-06-10T05:59:28;42.17;14.84
67131;HTU21D;54051;53.464;49.532;2023-06-10T06:01:54;42.36;14.71
67131;HTU21D;54051;53.464;49.532;2023-06-10T06:04:21;42.34;14.55
67131;HTU21D;54051;53.464;49.532;2023-06-10T06:06:47;42.31;15.06
67131;HTU21D;54051;53.464;49.532;2023-06-10T06:09:17;42.04;15.16
67131;HTU21D;54051;53.464;49.532;2023-06-10T06:11:43;42.45;14.49
67131;HTU21D;54051;53.464;49.532;2023-06-10T06:14:09;42.78;14.21
67131;HTU21D;54051;53.464;49.532;2023-06-10T06:16:35;42.84;14.13
67131;HTU21D;54051;53.464;49.532;2023-06-10T06:19:05;43.33;14.06
67131;HTU21D;54051;53.464;49.532;2023-06-10T06:21:34;43.48;13.69
67131;HTU21D;54051;53.464;49.532;2023-06-10T06:24:01;43.78;13.11
67131;HTU21D;54051;53.464;49.532;2023-06-10T06:26:27;43.00;13.52
67131;HTU21D;54051;53.464;49.532;2023-06-10T06:28:53;43.48;13.32
67131;HTU21D;54051;53.464;49.532;2023-06-10T06:31:19;43.40;13.65
67131;HTU21D;54051;53.464;49.532;2023-06-10T06:33:46;42.60;15.07
67131;HTU21D;54051;53.464;49.532;2023-06-10T06:36:12;42.66;15.89
67131;HTU21D;54051;53.464;49.532;2023-06-10T06:38:38;42.83;14.95
67131;HTU21D;54051;53.464;49.532;2023-06-10T06:41:04;42.34;15.28
67131;HTU21D;54051;53.464;49.532;2023-06-10T06:43:32;42.19;16.64
67131;HTU21D;54051;53.464;49.532;2023-06-10T06:45:59;41.61;16.76
67131;HTU21D;54051;53.464;49.532;2023-06-10T06:48:25;41.72;16.16
67131;HTU21D;54051;53.464;49.532;2023-06-10T06:50:51;41.49;17.58
67131;HTU21D;54051;53.464;49.532;2023-06-10T06:53:17;41.63;16.84
67131;HTU21D;54051;53.464;49.532;2023-06-10T06:55:44;41.45;16.37
67131;HTU21D;54051;53.464;49.532;2023-06-10T06:58:10;41.58;17.09
67131;HTU21D;54051;53.464;49.532;2023-06-10T07:00:39;41.69;16.34
67131;HTU21D;54051;53.464;49.532;2023-06-10T07:03:08;41.99;15.97
67131;HTU21D;54051;53.464;49.532;2023-06-10T07:05:34;41.80;15.87
67131;HTU21D;54051;53.464;49.532;2023-06-10T07:08:01;41.90;16.01
67131;HTU21D;54051;53.464;49.532;2023-06-10T07:10:28;41.73;16.00
67131;HTU21D;54051;53.464;49.532;2023-06-10T07:12:55;41.74;16.22
67131;HTU21D;54051;53.464;49.532;2023-06-10T07:15:21;41.24;16.00
67131;HTU21D;54051;53.464;49.532;2023-06-10T07:17:47;40.80;17.32
67131;HTU21D;54051;53.464;49.532;2023-06-10T07:20:13;41.05;16.63
67131;HTU21D;54051;53.464;49.532;2023-06-10T07:22:42;40.42;17.73
67131;HTU21D;54051;53.464;49.532;2023-06-10T07:25:11;40.09;18.64
67131;HTU21D;54051;53.464;49.532;2023-06-10T07:27:37;39.86;18.23
67131;HTU21D;54051;53.464;49.532;2023-06-10T07:30:05;40.15;16.68
67131;HTU21D;54051;53.464;49.532;2023-06-10T07:32:32;40.57;16.70
67131;HTU21D;54051;53.464;49.532;2023-06-10T07:34:59;41.05;14.60
67131;HTU21D;54051;53.464;49.532;2023-06-10T07:37:25;40.73;15.76
67131;HTU21D;54051;53.464;49.532;2023-06-10T07:39:51;40.55;17.33
67131;HTU21D;54051;53.464;49.532;2023-06-10T07:42:18;40.54;17.28
67131;HTU21D;54051;53.464;49.532;2023-06-10T07:44:44;40.42;17.51
67131;HTU21D;54051;53.464;49.532;2023-06-10T07:47:11;39.94;18.72
67131;HTU21D;54051;53.464;49.532;2023-06-10T07:49:37;39.74;18.48
67131;HTU21D;54051;53.464;49.532;2023-06-10T07:52:03;39.48;19.59
67131;HTU21D;54051;53.464;49.532;2023-06-10T07:54:33;38.81;20.79
67131;HTU21D;54051;53.464;49.532;2023-06-10T07:56:59;38.58;21.24
67131;HTU21D;54051;53.464;49.532;2023-06-10T07:59:25;37.31;22.85
67131;HTU21D;54051;53.464;49.532;2023-06-10T08:01:53;35.47;26.55
67131;HTU21D;54051;53.464;49.532;2023-06-10T08:04:19;34.31;28.82
67131;HTU21D;54051;53.464;49.532;2023-06-10T08:06:46;33.73;31.33
67131;HTU21D;54051;53.464;49.532;2023-06-10T08:09:12;33.43;32.14
67131;HTU21D;54051;53.464;49.532;2023-06-10T08:11:41;33.38;31.67
67131;HTU21D;54051;53.464;49.532;2023-06-10T08:14:08;33.26;30.82
67131;HTU21D;54051;53.464;49.532;2023-06-10T08:16:34;32.67;31.73
67131;HTU21D;54051;53.464;49.532;2023-06-10T08:19:00;32.53;32.62
67131;HTU21D;54051;53.464;49.532;2023-06-10T08:21:26;32.18;32.41
67131;HTU21D;54051;53.464;49.532;2023-06-10T08:23:54;31.53;33.77
67131;HTU21D;54051;53.464;49.532;2023-06-10T08:26:20;31.33;33.94
67131;HTU21D;54051;53.464;49.532;2023-06-10T08:28:47;31.78;32.91
67131;HTU21D;54051;53.464;49.532;2023-06-10T08:31:13;32.34;32.17
67131;HTU21D;54051;53.464;49.532;2023-06-10T08:33:41;32.75;31.19
67131;HTU21D;54051;53.464;49.532;2023-06-10T08:36:08;32.52;32.17
67131;HTU21D;54051;53.464;49.532;2023-06-10T08:38:44;31.93;33.08
67131;HTU21D;54051;53.464;49.532;2023-06-10T08:41:17;31.25;34.80
67131;HTU21D;54051;53.464;49.532;2023-06-10T08:44:04;30.96;34.73
67131;HTU21D;54051;53.464;49.532;2023-06-10T08:46:34;31.25;34.99
67131;HTU21D;54051;53.464;49.532;2023-06-10T08:49:05;31.35;37.57
67131;HTU21D;54051;53.464;49.532;2023-06-10T08:51:32;31.37;37.79
67131;HTU21D;54051;53.464;49.532;2023-06-10T08:54:14;31.34;33.96
67131;HTU21D;54051;53.464;49.532;2023-06-10T08:56:47;31.45;35.11
67131;HTU21D;54051;53.464;49.532;2023-06-10T08:59:15;31.38;36.12
67131;HTU21D;54051;53.464;49.532;2023-06-10T09:01:43;31.19;34.70
67131;HTU21D;54051;53.464;49.532;2023-06-10T09:04:10;30.96;39.73
67131;HTU21D;54051;53.464;49.532;2023-06-10T09:06:40;30.64;43.49
67131;HTU21D;54051;53.464;49.532;2023-06-10T09:09:07;30.02;44.48
67131;HTU21D;54051;53.464;49.532;2023-06-10T09:11:33;28.94;48.36
67131;HTU21D;54051;53.464;49.532;2023-06-10T09:13:59;28.09;47.48
67131;HTU21D;54051;53.464;49.532;2023-06-10T09:16:26;27.65;48.67
67131;HTU21D;54051;53.464;49.532;2023-06-10T09:18:53;27.26;45.58
67131;HTU21D;54051;53.464;49.532;2023-06-10T09:21:24;26.50;47.41
67131;HTU21D;54051;53.464;49.532;2023-06-10T09:23:51;25.76;45.51
67131;HTU21D;54051;53.464;49.532;2023-06-10T09:26:18;25.22;51.14
67131;HTU21D;54051;53.464;49.532;2023-06-10T09:28:48;25.17;52.88
67131;HTU21D;54051;53.464;49.532;2023-06-10T09:31:19;25.05;53.39
67131;HTU21D;54051;53.464;49.532;2023-06-10T09:33:47;25.24;50.98
67131;HTU21D;54051;53.464;49.532;2023-06-10T09:36:25;25.52;49.01
67131;HTU21D;54051;53.464;49.532;2023-06-10T09:38:52;25.66;54.61
67131;HTU21D;54051;53.464;49.532;2023-06-10T09:41:18;25.88;53.37
67131;HTU21D;54051;53.464;49.532;2023-06-10T09:43:45;26.17;55.53
67131;HTU21D;54051;53.464;49.532;2023-06-10T09:46:21;26.54;51.23
67131;HTU21D;54051;53.464;49.532;2023-06-10T09:48:48;26.75;49.91
67131;HTU21D;54051;53.464;49.532;2023-06-10T09:51:18;27.09;50.27
67131;HTU21D;54051;53.464;49.532;2023-06-10T09:53:52;27.69;49.15
67131;HTU21D;54051;53.464;49.532;2023-06-10T09:56:18;28.21;49.07
67131;HTU21D;54051;53.464;49.532;2023-06-10T09:58:53;28.50;44.78
67131;HTU21D;54051;53.464;49.532;2023-06-10T10:01:19;28.37;44.55
67131;HTU21D;54051;53.464;49.532;2023-06-10T10:03:47;28.35;43.80
67131;HTU21D;54051;53.464;49.532;2023-06-10T10:06:18;28.38;45.03
67131;HTU21D;54051;53.464;49.532;2023-06-10T10:08:46;28.14;41.10
67131;HTU21D;54051;53.464;49.532;2023-06-10T10:11:18;28.01;41.46
67131;HTU21D;54051;53.464;49.532;2023-06-10T10:13:48;27.74;43.65
67131;HTU21D;54051;53.464;49.532;2023-06-10T10:16:17;27.27;45.52
67131;HTU21D;54051;53.464;49.532;2023-06-10T10:18:55;26.87;47.44
67131;HTU21D;54051;53.464;49.532;2023-06-10T10:21:31;26.46;49.07
67131;HTU21D;54051;53.464;49.532;2023-06-10T10:24:01;26.23;49.85
67131;HTU21D;54051;53.464;49.532;2023-06-10T10:26:29;26.07;50.09
67131;HTU21D;54051;53.464;49.532;2023-06-10T10:31:37;25.62;51.87
67131;HTU21D;54051;53.464;49.532;2023-06-10T10:34:07;25.64;52.11
67131;HTU21D;54051;53.464;49.532;2023-06-10T10:36:35;25.44;51.85
67131;HTU21D;54051;53.464;49.532;2023-06-10T10:39:04;25.17;51.82
67131;HTU21D;54051;53.464;49.532;2023-06-10T10:41:34;24.86;50.18
67131;HTU21D;54051;53.464;49.532;2023-06-10T10:44:09;24.57;51.31
67131;HTU21D;54051;53.464;49.532;2023-06-10T10:46:43;24.31;51.24
67131;HTU21D;54051;53.464;49.532;2023-06-10T10:49:14;24.19;52.33
67131;HTU21D;54051;53.464;49.532;2023-06-10T10:52:01;23.86;54.62
67131;HTU21D;54051;53.464;49.532;2023-06-10T10:54:43;23.61;59.17
67131;HTU21D;54051;53.464;49.532;2023-06-10T10:57:10;23.07;64.41
67131;HTU21D;54051;53.464;49.532;2023-06-10T10:59:44;22.38;66.58
67131;HTU21D;54051;53.464;49.532;2023-06-10T11:05:01;21.81;70.40
67131;HTU21D;54051;53.464;49.532;2023-06-10T11:07:31;21.66;70.93
67131;HTU21D;54051;53.464;49.532;2023-06-10T11:10:04;21.76;70.50
67131;HTU21D;54051;53.464;49.532;2023-06-10T11:12:50;21.78;70.52
67131;HTU21D;54051;53.464;49.532;2023-06-10T11:15:19;21.73;71.37
67131;HTU21D;54051;53.464;49.532;2023-06-10T11:18:14;21.55;72.04
67131;HTU21D;54051;53.464;49.532;2023-06-10T11:28:39;20.93;73.82
67131;HTU21D;54051;53.464;49.532;2023-06-10T11:31:06;20.98;72.97
67131;HTU21D;54051;53.464;49.532;2023-06-10T11:33:32;20.96;72.80
67131;HTU21D;54051;53.464;49.532;2023-06-10T11:36:00;21.07;71.38
67131;HTU21D;54051;53.464;49.532;2023-06-10T11:38:28;21.09;70.36
67131;HTU21D;54051;53.464;49.532;2023-06-10T11:41:05;21.35;68.51
67131;HTU21D;54051;53.464;49.532;2023-06-10T11:43:34;21.64;69.20
67131;HTU21D;54051;53.464;49.532;2023-06-10T11:46:02;22.11;67.78
67131;HTU21D;54051;53.464;49.532;2023-06-10T11:48:28;22.36;67.80
67131;HTU21D;54051;53.464;49.532;2023-06-10T11:50:59;22.58;67.11
67131;HTU21D;54051;53.464;49.532;2023-06-10T11:53:34;22.70;65.65
67131;HTU21D;54051;53.464;49.532;2023-06-10T11:56:03;23.00;64.82
67131;HTU21D;54051;53.464;49.532;2023-06-10T11:58:32;23.25;64.33
67131;HTU21D;54051;53.464;49.532;2023-06-10T12:00:59;23.47;62.78
67131;HTU21D;54051;53.464;49.532;2023-06-10T12:03:35;23.46;63.37
67131;HTU21D;54051;53.464;49.532;2023-06-10T12:06:05;23.27;62.92
67131;HTU21D;54051;53.464;49.532;2023-06-10T12:08:32;23.08;65.08
67131;HTU21D;54051;53.464;49.532;2023-06-10T12:11:04;22.71;66.45
67131;HTU21D;54051;53.464;49.532;2023-06-10T12:13:31;22.33;67.51
67131;HTU21D;54051;53.464;49.532;2023-06-10T12:16:09;21.99;67.45
67131;HTU21D;54051;53.464;49.532;2023-06-10T12:18:35;21.47;70.12
67131;HTU21D;54051;53.464;49.532;2023-06-10T12:21:01;21.16;71.13
67131;HTU21D;54051;53.464;49.532;2023-06-10T12:23:29;20.80;72.52
67131;HTU21D;54051;53.464;49.532;2023-06-10T12:25:55;20.66;74.12
67131;HTU21D;54051;53.464;49.532;2023-06-10T12:28:26;20.87;75.50
67131;HTU21D;54051;53.464;49.532;2023-06-10T12:31:06;21.01;74.32
67131;HTU21D;54051;53.464;49.532;2023-06-10T12:33:34;20.86;73.45
67131;HTU21D;54051;53.464;49.532;2023-06-10T12:36:01;20.87;74.18
67131;HTU21D;54051;53.464;49.532;2023-06-10T12:38:27;20.85;71.32
67131;HTU21D;54051;53.464;49.532;2023-06-10T12:40:53;20.83;70.99
67131;HTU21D;54051;53.464;49.532;2023-06-10T12:43:25;20.81;72.14
67131;HTU21D;54051;53.464;49.532;2023-06-10T12:45:51;20.62;71.13
67131;HTU21D;54051;53.464;49.532;2023-06-10T12:48:22;20.44;74.18
67131;HTU21D;54051;53.464;49.532;2023-06-10T12:50:57;20.44;74.03
67131;HTU21D;54051;53.464;49.532;2023-06-10T12:53:24;20.35;75.39
67131;HTU21D;54051;53.464;49.532;2023-06-10T12:55:52;20.49;76.01
67131;HTU21D;54051;53.464;49.532;2023-06-10T12:58:22;20.37;74.25
67131;HTU21D;54051;53.464;49.532;2023-06-10T13:00:49;20.30;75.32
67131;HTU21D;54051;53.464;49.532;2023-06-10T13:03:24;20.40;73.45
67131;HTU21D;54051;53.464;49.532;2023-06-10T13:05:50;20.37;73.71
67131;HTU21D;54051;53.464;49.532;2023-06-10T13:08:16;20.33;75.47
67131;HTU21D;54051;53.464;49.532;2023-06-10T13:10:46;20.15;75.17
67131;HTU21D;54051;53.464;49.532;2023-06-10T13:13:12;20.04;75.31
67131;HTU21D;54051;53.464;49.532;2023-06-10T13:15:40;20.10;75.85
67131;HTU21D;54051;53.464;49.532;2023-06-10T13:18:06;20.21;76.40
67131;HTU21D;54051;53.464;49.532;2023-06-10T13:20:32;20.29;76.26
67131;HTU21D;54051;53.464;49.532;2023-06-10T13:22:58;20.42;77.04
67131;HTU21D;54051;53.464;49.532;2023-06-10T13:25:24;20.28;76.60
67131;HTU21D;54051;53.464;49.532;2023-06-10T13:27:56;20.20;77.61
67131;HTU21D;54051;53.464;49.532;2023-06-10T13:30:22;20.21;77.50
67131;HTU21D;54051;53.464;49.532;2023-06-10T13:32:48;20.15;77.36
67131;HTU21D;54051;53.464;49.532;2023-06-10T13:35:14;20.15;77.79
67131;HTU21D;54051;53.464;49.532;2023-06-10T13:37:40;20.24;75.66
67131;HTU21D;54051;53.464;49.532;2023-06-10T13:40:06;20.17;77.44
67131;HTU21D;54051;53.464;49.532;2023-06-10T13:42:36;20.16;76.09
67131;HTU21D;54051;53.464;49.532;2023-06-10T13:45:08;20.03;75.97
67131;HTU21D;54051;53.464;49.532;2023-06-10T13:47:35;19.92;76.37
67131;HTU21D;54051;53.464;49.532;2023-06-10T13:50:05;19.48;78.43
67131;HTU21D;54051;53.464;49.532;2023-06-10T13:52:34;19.23;80.38
67131;HTU21D;54051;53.464;49.532;2023-06-10T13:55:00;19.24;80.80
67131;HTU21D;54051;53.464;49.532;2023-06-10T13:57:26;19.44;80.89
67131;HTU21D;54051;53.464;49.532;2023-06-10T13:59:52;19.84;80.08
67131;HTU21D;54051;53.464;49.532;2023-06-10T14:02:18;20.26;79.32
67131;HTU21D;54051;53.464;49.532;2023-06-10T14:04:44;20.50;78.36
67131;HTU21D;54051;53.464;49.532;2023-06-10T14:07:10;20.64;76.32
67131;HTU21D;54051;53.464;49.532;2023-06-10T14:09:39;20.83;75.03
67131;HTU21D;54051;53.464;49.532;2023-06-10T14:12:23;20.98;74.76
67131;HTU21D;54051;53.464;49.532;2023-06-10T14:14:52;21.03;72.84
67131;HTU21D;54051;53.464;49.532;2023-06-10T14:17:18;21.08;73.73
67131;HTU21D;54051;53.464;49.532;2023-06-10T14:19:44;21.14;73.32
67131;HTU21D;54051;53.464;49.532;2023-06-10T14:22:10;21.22;72.87
67131;HTU21D;54051;53.464;49.532;2023-06-10T14:24:36;21.33;72.51
67131;HTU21D;54051;53.464;49.532;2023-06-10T14:27:03;21.37;70.93
67131;HTU21D;54051;53.464;49.532;2023-06-10T14:29:29;21.20;71.54
67131;HTU21D;54051;53.464;49.532;2023-06-10T14:31:57;21.23;70.91
67131;HTU21D;54051;53.464;49.532;2023-06-10T14:34:23;21.35;71.00
67131;HTU21D;54051;53.464;49.532;2023-06-10T14:36:54;21.49;69.97
67131;HTU21D;54051;53.464;49.532;2023-06-10T14:39:20;21.53;70.42
67131;HTU21D;54051;53.464;49.532;2023-06-10T14:41:46;21.53;68.49
67131;HTU21D;54051;53.464;49.532;2023-06-10T14:44:13;21.61;69.12
67131;HTU21D;54051;53.464;49.532;2023-06-10T14:46:39;21.69;68.09
67131;HTU21D;54051;53.464;49.532;2023-06-10T14:49:08;21.75;68.36
67131;HTU21D;54051;53.464;49.532;2023-06-10T14:51:34;21.80;65.72
67131;HTU21D;54051;53.464;49.532;2023-06-10T14:54:00;21.65;64.31
67131;HTU21D;54051;53.464;49.532;2023-06-10T14:56:26;21.55;64.53
67131;HTU21D;54051;53.464;49.532;2023-06-10T14:58:52;21.44;66.52
67131;HTU21D;54051;53.464;49.532;2023-06-10T15:01:36;21.36;65.98
67131;HTU21D;54051;53.464;49.532;2023-06-10T15:04:02;21.32;65.23
67131;HTU21D;54051;53.464;49.532;2023-06-10T15:06:28;21.23;66.84
67131;HTU21D;54051;53.464;49.532;2023-06-10T15:08:54;21.15;66.81
67131;HTU21D;54051;53.464;49.532;2023-06-10T15:11:24;21.00;68.39
67131;HTU21D;54051;53.464;49.532;2023-06-10T15:13:50;20.83;68.49
67131;HTU21D;54051;53.464;49.532;2023-06-10T15:16:16;20.80;67.74
67131;HTU21D;54051;53.464;49.532;2023-06-10T15:18:42;20.81;67.84
67131;HTU21D;54051;53.464;49.532;2023-06-10T15:21:08;20.79;68.27
67131;HTU21D;54051;53.464;49.532;2023-06-10T15:23:34;20.74;67.43
67131;HTU21D;54051;53.464;49.532;2023-06-10T15:26:01;20.78;68.15